»·PEaware :: N132KT KWLW-KMMV

N132KT :: KWLW-KMMV

FLIGHT INFORMATION

Flight Status: Arrived
Operator: Privately registered:
United States
More flights under this callsign
Pilot: Keith S. (1)
Aircraft: BEECH AIRCRAFT BARON
(BE58)
More flights by this aircraft type
Origin: KWLW Willows-Glenn Co
United States
Destination: KMMV McMinnville Mun
United States
More flights between these airports :: More routes between these airports
Route:
File this flight plan on PilotEdge
Remarks:
Altitude:
(Current/Filed)
8,500ft
Speed:
(Current/Filed)
165kts
Departed: 17-Jun-19 09:53 AM
Arrived: 17-Jun-19 12:00 PM
Distance/Time
Traveled:
343nm/2:07
Distance/Time
To Go:
Arrived

Flight Plot

Page will automatically refresh every two minutes.

Flight plan parsing failed; only flown route is shown


Map Options




Map Legend


Flown Route
Filed Route
Departure Airport
Arrival Airport
Navaid (VOR, NDB)
Fix

Horizontal Profiles

Position Reports

Time Latitude Longitude Heading Altitude Ground
Speed
17-Jun-19 09:51 39.517440 -122.219708 178 141ft 88kts
17-Jun-19 09:52 39.485386 -122.219406 142 1318ft 122kts
17-Jun-19 09:53 39.498761 -122.196438 334 2592ft 124kts
17-Jun-19 09:54 39.533651 -122.207541 352 3345ft 142kts
17-Jun-19 09:55 39.573786 -122.213798 352 4014ft 146kts
17-Jun-19 09:56 39.614253 -122.219879 351 4699ft 146kts
17-Jun-19 09:57 39.654726 -122.225966 351 5367ft 146kts
17-Jun-19 09:58 39.695396 -122.232094 350 6014ft 147kts
17-Jun-19 09:59 39.736546 -122.238303 349 6642ft 149kts
17-Jun-19 10:00 39.778125 -122.244583 349 7248ft 151kts
17-Jun-19 10:01 39.819500 -122.250835 349 7753ft 148kts
17-Jun-19 10:02 39.860872 -122.257097 348 8200ft 150kts
17-Jun-19 10:03 39.903326 -122.263544 348 8493ft 162kts
17-Jun-19 10:04 39.950478 -122.270677 349 8485ft 174kts
17-Jun-19 10:05 39.998949 -122.278038 348 8483ft 176kts
17-Jun-19 10:06 40.048004 -122.285519 348 8482ft 177kts
17-Jun-19 10:07 40.096974 -122.292983 348 8482ft 177kts
17-Jun-19 10:08 40.145613 -122.300403 348 8480ft 177kts
17-Jun-19 10:09 40.194675 -122.307901 348 8480ft 177kts
17-Jun-19 10:10 40.243742 -122.315403 348 8480ft 177kts
17-Jun-19 10:11 40.292688 -122.322913 348 8481ft 177kts
17-Jun-19 10:12 40.341416 -122.330389 348 8481ft 177kts
17-Jun-19 10:13 40.388992 -122.337690 348 8480ft 177kts
17-Jun-19 10:14 40.438007 -122.345246 348 8480ft 177kts
17-Jun-19 10:15 40.487370 -122.352863 348 8481ft 178kts
17-Jun-19 10:16 40.536573 -122.360441 348 8483ft 177kts
17-Jun-19 10:17 40.585921 -122.368076 348 8481ft 178kts
17-Jun-19 10:18 40.635244 -122.375740 349 8479ft 178kts
17-Jun-19 10:19 40.684464 -122.383324 347 8482ft 178kts
17-Jun-19 10:20 40.733830 -122.391011 347 8481ft 178kts
17-Jun-19 10:21 40.783126 -122.398691 348 8483ft 178kts
17-Jun-19 10:22 40.832582 -122.406396 348 8481ft 178kts
17-Jun-19 10:23 40.881921 -122.414088 348 8479ft 178kts
17-Jun-19 10:24 40.931311 -122.421789 348 8484ft 178kts
17-Jun-19 10:25 40.980525 -122.429515 347 8484ft 178kts
17-Jun-19 10:26 41.029797 -122.437246 348 8496ft 178kts
17-Jun-19 10:27 41.078996 -122.444953 348 8514ft 177kts
17-Jun-19 10:28 41.127078 -122.452522 349 8535ft 177kts
17-Jun-19 10:29 41.175924 -122.460191 349 8602ft 175kts
17-Jun-19 10:30 41.222569 -122.467625 351 8999ft 154kts
17-Jun-19 10:31 41.263935 -122.474117 351 9528ft 147kts
17-Jun-19 10:32 41.304719 -122.480554 351 9988ft 148kts
17-Jun-19 10:33 41.345722 -122.487040 351 10431ft 149kts
17-Jun-19 10:34 41.387104 -122.493597 351 10864ft 149kts
17-Jun-19 10:35 41.432281 -122.500745 351 10765ft 170kts
17-Jun-19 10:36 41.479493 -122.508240 351 10765ft 172kts
17-Jun-19 10:37 41.527240 -122.515837 351 10765ft 172kts
17-Jun-19 10:38 41.574856 -122.523425 351 10765ft 172kts
17-Jun-19 10:39 41.622822 -122.531081 351 10765ft 172kts
17-Jun-19 10:40 41.670616 -122.538720 351 10765ft 172kts
17-Jun-19 10:41 41.718383 -122.546368 351 10765ft 172kts
17-Jun-19 10:42 41.766368 -122.554061 351 10765ft 172kts
17-Jun-19 10:43 41.814103 -122.561725 351 10765ft 172kts
17-Jun-19 10:44 41.861989 -122.569426 351 10765ft 172kts
17-Jun-19 10:45 41.909735 -122.577115 351 10765ft 172kts
17-Jun-19 10:46 41.956883 -122.584720 351 10765ft 172kts
17-Jun-19 10:47 42.004840 -122.592466 351 10765ft 172kts
17-Jun-19 10:48 42.052597 -122.600192 351 10765ft 172kts
17-Jun-19 10:50 42.100031 -122.607879 351 10765ft 172kts
17-Jun-19 10:51 42.147384 -122.615561 352 10765ft 172kts
17-Jun-19 10:52 42.195203 -122.623332 352 10765ft 172kts
17-Jun-19 10:53 42.242674 -122.631058 352 10765ft 172kts
17-Jun-19 10:54 42.290319 -122.638822 352 10765ft 172kts
17-Jun-19 10:55 42.337836 -122.646579 352 10765ft 172kts
17-Jun-19 10:56 42.385453 -122.654364 351 10765ft 172kts
17-Jun-19 10:57 42.432970 -122.662146 351 10766ft 172kts
17-Jun-19 10:58 42.480408 -122.669926 351 10765ft 172kts
17-Jun-19 10:59 42.528008 -122.677744 351 10766ft 172kts
17-Jun-19 11:00 42.575790 -122.685604 351 10766ft 172kts
17-Jun-19 11:01 42.623524 -122.693469 351 10766ft 172kts
17-Jun-19 11:02 42.671254 -122.701345 351 10766ft 172kts
17-Jun-19 11:03 42.718844 -122.709210 351 10766ft 172kts
17-Jun-19 11:04 42.766659 -122.717124 351 10765ft 172kts
17-Jun-19 11:05 42.814436 -122.725044 351 10766ft 172kts
17-Jun-19 11:06 42.862241 -122.732982 351 10766ft 172kts
17-Jun-19 11:06 42.901946 -122.739571 351 10767ft 172kts
17-Jun-19 11:08 42.957077 -122.748752 350 10773ft 169kts
17-Jun-19 11:09 43.003447 -122.756511 351 10778ft 166kts
17-Jun-19 11:09 43.041444 -122.762884 352 10782ft 163kts
17-Jun-19 11:11 43.093622 -122.771586 352 10789ft 161kts
17-Jun-19 11:12 43.138327 -122.779073 352 10797ft 161kts
17-Jun-19 11:12 43.175325 -122.785280 352 10800ft 161kts
17-Jun-19 11:13 43.220114 -122.792805 352 10803ft 161kts
17-Jun-19 11:14 43.264641 -122.800296 352 10803ft 161kts
17-Jun-19 11:15 43.309361 -122.807829 352 10794ft 161kts
17-Jun-19 11:16 43.354118 -122.815384 352 10794ft 161kts
17-Jun-19 11:17 43.399017 -122.822973 352 10794ft 161kts
17-Jun-19 11:18 43.443743 -122.830543 352 10793ft 161kts
17-Jun-19 11:19 43.488456 -122.838123 352 10793ft 161kts
17-Jun-19 11:20 43.533153 -122.845710 352 10795ft 161kts
17-Jun-19 11:21 43.577900 -122.853317 352 10805ft 161kts
17-Jun-19 11:22 43.622594 -122.860928 352 10815ft 161kts
17-Jun-19 11:23 43.667315 -122.868554 352 10825ft 160kts
17-Jun-19 11:24 43.711945 -122.876177 352 10829ft 161kts
17-Jun-19 11:25 43.756587 -122.883813 352 10830ft 161kts
17-Jun-19 11:26 43.801149 -122.891446 352 10829ft 161kts
17-Jun-19 11:27 43.845799 -122.899107 352 10829ft 160kts
17-Jun-19 11:28 43.890069 -122.906713 352 10829ft 160kts
17-Jun-19 11:29 43.934630 -122.914381 352 10828ft 160kts
17-Jun-19 11:30 43.978872 -122.922005 352 10829ft 160kts
17-Jun-19 11:31 44.023440 -122.929698 352 10828ft 160kts
17-Jun-19 11:32 44.067735 -122.937354 352 10828ft 160kts
17-Jun-19 11:33 44.111131 -122.944867 352 10831ft 160kts
17-Jun-19 11:34 44.155575 -122.952572 352 10831ft 160kts
17-Jun-19 11:35 44.199956 -122.960278 352 10831ft 160kts
17-Jun-19 11:36 44.244131 -122.967960 352 10830ft 160kts
17-Jun-19 11:37 44.288480 -122.975684 352 10830ft 160kts
17-Jun-19 11:38 44.332659 -122.983390 352 10830ft 160kts
17-Jun-19 11:39 44.376886 -122.991116 352 10830ft 160kts
17-Jun-19 11:40 44.421087 -122.998849 352 10830ft 159kts
17-Jun-19 11:41 44.465308 -123.006598 352 10830ft 160kts
17-Jun-19 11:42 44.509496 -123.014351 352 10760ft 164kts
17-Jun-19 11:43 44.557399 -123.022748 352 10178ft 177kts
17-Jun-19 11:44 44.606761 -123.031439 352 9617ft 179kts
17-Jun-19 11:45 44.656370 -123.040188 352 9074ft 179kts
17-Jun-19 11:46 44.705909 -123.048940 352 8543ft 179kts
17-Jun-19 11:47 44.755426 -123.057703 352 8021ft 178kts
17-Jun-19 11:48 44.804665 -123.066431 352 7510ft 178kts
17-Jun-19 11:49 44.854099 -123.075210 352 7005ft 178kts
17-Jun-19 11:50 44.905247 -123.084283 352 6204ft 192kts
17-Jun-19 11:51 44.958868 -123.093842 352 5353ft 194kts
17-Jun-19 11:52 45.012502 -123.103419 352 4525ft 194kts
17-Jun-19 11:53 45.066133 -123.113013 352 3713ft 194kts
17-Jun-19 11:54 45.118632 -123.122434 352 2887ft 185kts
17-Jun-19 11:55 45.171393 -123.126230 9 1588ft 202kts
17-Jun-19 11:56 45.216452 -123.130854 303 1316ft 145kts
17-Jun-19 11:57 45.198972 -123.169723 152 1187ft 142kts
17-Jun-19 11:58 45.196099 -123.138781 57 147ft 57kts
17-Jun-19 11:59 45.198254 -123.139186 346 147ft 0kts
17-Jun-19 12:00 45.198254 -123.139186 346 147ft 0kts

Navigation Log

Ident Type
Flight plan parsing failed, navigation log unavailable